Time;durP1;ratioP1;P1;durP2;ratioP2;P2;SDS_P1;SDS_P2;PMS_P1;PMS_P2;Temp;Humidity;BMP_temperature;BMP_pressure;BME280_temperature;BME280_humidity;BME280_pressure;Samples;Min_cycle;Max_cycle;Signal;HPM_P1;HPM_P2
2023/03/07 00:02:01;;;;;;;16.30;9.53;;;-1.70;99.90;;;;;;9833956;30;20237;-83
2023/03/07 00:07:22;;;;;;;18.77;9.17;;;-1.80;99.90;;;;;;9809512;30;20255;-84
2023/03/07 00:12:43;;;;;;;27.40;11.60;;;-1.80;99.90;;;;;;9819034;30;20293;-84
2023/03/07 00:18:05;;;;;;;29.17;10.50;;;-1.90;99.90;;;;;;9828654;30;20206;-84
2023/03/07 00:23:26;;;;;;;32.87;13.00;;;-1.80;99.90;;;;;;9855302;30;20248;-81
2023/03/07 00:28:50;;;;;;;32.00;12.20;;;-1.80;99.90;;;;;;9842531;30;20440;-82
2023/03/07 00:34:11;;;;;;;27.43;11.93;;;-1.90;99.90;;;;;;9823774;30;20283;-82
2023/03/07 00:39:32;;;;;;;27.70;12.37;;;-1.90;99.90;;;;;;9826661;30;20405;-84
2023/03/07 00:44:52;;;;;;;32.00;13.63;;;-2.00;99.90;;;;;;9842400;30;20253;-83
2023/03/07 00:50:14;;;;;;;25.77;11.60;;;-1.90;99.90;;;;;;9817321;30;20501;-84
2023/03/07 00:55:35;;;;;;;25.83;11.37;;;-1.90;99.90;;;;;;9826762;30;20220;-81
2023/03/07 01:00:56;;;;;;;27.97;12.63;;;-1.90;99.90;;;;;;9846244;30;20209;-83
2023/03/07 01:06:21;;;;;;;24.60;12.07;;;-1.80;99.90;;;;;;9888278;30;20243;-85
2023/03/07 01:11:42;;;;;;;23.57;10.23;;;-1.80;99.90;;;;;;9873855;30;20205;-82
2023/03/07 01:17:03;;;;;;;27.30;11.87;;;-1.90;99.90;;;;;;9858519;30;20245;-85
2023/03/07 01:22:25;;;;;;;19.63;10.30;;;-2.00;99.90;;;;;;9855674;30;20265;-84
2023/03/07 01:27:46;;;;;;;24.90;11.77;;;-2.10;99.90;;;;;;9847520;30;20203;-83
2023/03/07 01:33:08;;;;;;;22.17;10.07;;;-2.20;99.90;;;;;;9871266;30;20314;-82
2023/03/07 01:38:32;;;;;;;26.90;12.07;;;-2.30;99.90;;;;;;9836376;30;20190;-81
2023/03/07 01:44:04;;;;;;;30.50;12.90;;;-2.30;99.90;;;;;;9850780;30;20241;-84
2023/03/07 01:49:29;;;;;;;36.17;19.00;;;-2.20;99.90;;;;;;9838301;30;20218;-84
2023/03/07 01:55:05;;;;;;;32.20;15.40;;;-2.30;99.90;;;;;;9847599;30;20239;-81
2023/03/07 02:00:29;;;;;;;29.53;15.67;;;-2.40;99.90;;;;;;9835705;30;20393;-84
2023/03/07 02:06:00;;;;;;;19.67;11.97;;;-2.40;99.90;;;;;;9837532;30;20239;-84
2023/03/07 02:11:22;;;;;;;20.20;10.97;;;-2.30;99.90;;;;;;9846541;30;20287;-85
2023/03/07 02:16:45;;;;;;;21.70;11.07;;;-2.30;99.90;;;;;;9847593;30;20218;-85
2023/03/07 02:22:08;;;;;;;22.67;12.03;;;-2.40;99.90;;;;;;9822332;30;20229;-84
2023/03/07 02:27:32;;;;;;;22.90;12.63;;;-2.40;99.90;;;;;;9828634;30;20227;-84
2023/03/07 02:32:54;;;;;;;22.23;12.20;;;-2.50;99.90;;;;;;9813768;30;20236;-86
2023/03/07 02:38:16;;;;;;;21.00;12.00;;;-2.60;99.90;;;;;;9862969;30;20375;-82
2023/03/07 02:43:37;;;;;;;33.63;16.53;;;-2.70;99.90;;;;;;9825208;30;20319;-85
2023/03/07 02:49:00;;;;;;;30.20;14.80;;;-2.70;99.90;;;;;;9823338;30;20196;-82
2023/03/07 02:54:24;;;;;;;26.30;13.57;;;-2.70;99.90;;;;;;9811259;30;20208;-85
2023/03/07 02:59:45;;;;;;;22.80;13.33;;;-2.80;99.90;;;;;;9797504;30;20210;-84
2023/03/07 03:05:07;;;;;;;23.77;13.57;;;-2.80;99.90;;;;;;9809296;30;20427;-86
2023/03/07 03:10:28;;;;;;;24.00;12.97;;;-2.80;99.90;;;;;;9826197;30;20537;-81
2023/03/07 03:15:55;;;;;;;24.60;13.83;;;-2.70;99.90;;;;;;9882071;30;20215;-85
2023/03/07 03:21:17;;;;;;;27.33;12.23;;;-2.70;99.90;;;;;;9861529;30;20586;-85
2023/03/07 03:26:38;;;;;;;23.67;12.90;;;-2.70;99.90;;;;;;9823533;30;20891;-84
2023/03/07 03:32:01;;;;;;;22.07;11.97;;;-2.70;99.90;;;;;;9844235;30;20264;-84
2023/03/07 03:37:22;;;;;;;26.23;13.40;;;-2.70;99.90;;;;;;9832239;30;20213;-84
2023/03/07 03:42:44;;;;;;;28.03;13.03;;;-2.60;99.90;;;;;;9824283;30;20242;-84
2023/03/07 03:48:08;;;;;;;26.10;14.93;;;-2.60;99.90;;;;;;9820029;30;20230;-83
2023/03/07 03:53:31;;;;;;;31.77;15.57;;;-2.70;99.90;;;;;;9807429;30;20216;-83
2023/03/07 03:58:55;;;;;;;30.43;15.70;;;-2.70;99.90;;;;;;9842894;30;20240;-83
2023/03/07 04:04:17;;;;;;;32.53;17.03;;;-2.70;99.90;;;;;;9831693;30;20463;-83
2023/03/07 04:09:39;;;;;;;28.50;15.43;;;-2.70;99.90;;;;;;9830676;30;20400;-84
2023/03/07 04:15:00;;;;;;;27.83;15.00;;;-2.70;99.90;;;;;;9848065;30;20258;-83
2023/03/07 04:20:22;;;;;;;56.53;20.53;;;-2.60;99.90;;;;;;9855514;30;20207;-82
2023/03/07 04:25:54;;;;;;;96.50;32.90;;;-2.60;99.90;;;;;;9842617;30;20244;-85
2023/03/07 04:31:25;;;;;;;52.80;23.53;;;-2.60;99.90;;;;;;9806068;30;20252;-84
2023/03/07 04:36:47;;;;;;;42.23;19.67;;;-2.50;99.90;;;;;;9816285;30;20271;-80
2023/03/07 04:42:08;;;;;;;37.20;19.83;;;-2.50;99.90;;;;;;9847245;30;20389;-82
2023/03/07 04:47:30;;;;;;;37.00;17.53;;;-2.50;99.90;;;;;;9862252;30;20204;-84
2023/03/07 04:52:51;;;;;;;32.10;16.33;;;-2.50;99.90;;;;;;9816890;30;20205;-84
2023/03/07 04:58:13;;;;;;;29.73;14.97;;;-2.50;99.90;;;;;;9796921;30;20214;-82
2023/03/07 05:03:35;;;;;;;27.37;13.70;;;-2.50;99.90;;;;;;9814082;30;20285;-82
2023/03/07 05:08:57;;;;;;;27.13;14.97;;;-2.40;99.90;;;;;;9843353;30;20364;-84
2023/03/07 05:14:19;;;;;;;65.70;41.50;;;-2.40;99.90;;;;;;9831055;30;20530;-84
2023/03/07 05:19:41;;;;;;;131.97;68.20;;;-2.40;99.90;;;;;;9824681;30;20473;-84
2023/03/07 05:25:02;;;;;;;111.83;62.53;;;-2.20;99.90;;;;;;9837804;30;20236;-84
2023/03/07 05:30:24;;;;;;;63.00;38.60;;;-2.20;99.90;;;;;;9844649;30;20200;-82
2023/03/07 05:35:46;;;;;;;52.87;31.43;;;-2.10;99.90;;;;;;9827558;30;20248;-82
2023/03/07 05:41:09;;;;;;;33.27;20.47;;;-2.00;99.90;;;;;;9829675;30;20205;-83
2023/03/07 05:46:30;;;;;;;36.50;20.27;;;-2.10;99.90;;;;;;9845620;30;20269;-82
2023/03/07 05:51:52;;;;;;;39.13;20.23;;;-2.10;99.90;;;;;;9831079;30;20213;-83
2023/03/07 05:57:15;;;;;;;37.63;20.13;;;-2.10;99.90;;;;;;9811445;30;20263;-85
2023/03/07 06:02:36;;;;;;;43.03;23.37;;;-2.10;99.90;;;;;;9811143;30;20218;-84
2023/03/07 06:07:58;;;;;;;40.17;21.20;;;-2.00;99.90;;;;;;9827221;30;20327;-85
2023/03/07 06:13:24;;;;;;;34.47;17.60;;;-2.00;99.90;;;;;;9835301;30;20257;-83
2023/03/07 06:18:45;;;;;;;33.67;18.30;;;-1.90;99.90;;;;;;9835056;30;20228;-84
2023/03/07 06:24:06;;;;;;;33.67;18.23;;;-1.80;99.90;;;;;;9866130;30;20426;-84
2023/03/07 06:29:29;;;;;;;32.70;16.50;;;-1.60;99.90;;;;;;9874435;30;20295;-83
2023/03/07 06:34:50;;;;;;;34.07;18.80;;;-1.50;99.90;;;;;;9843036;30;20456;-85
2023/03/07 06:40:12;;;;;;;26.83;13.90;;;-1.30;99.90;;;;;;9846283;30;20388;-83
2023/03/07 06:45:35;;;;;;;29.63;15.90;;;-1.10;99.90;;;;;;9847107;30;20543;-86
2023/03/07 06:50:57;;;;;;;34.40;17.97;;;-0.70;99.90;;;;;;9845777;30;20221;-86
2023/03/07 06:56:18;;;;;;;26.47;14.53;;;-0.70;99.90;;;;;;9835181;30;20208;-87
2023/03/07 07:01:39;;;;;;;24.90;14.13;;;-0.60;99.90;;;;;;9834088;30;20318;-86
2023/03/07 07:07:01;;;;;;;77.80;34.10;;;-0.20;99.90;;;;;;9847668;30;20301;-87
2023/03/07 07:12:22;;;;;;;29.20;18.33;;;0.60;99.90;;;;;;9858894;30;20244;-84
2023/03/07 07:17:43;;;;;;;30.53;14.77;;;1.20;97.20;;;;;;9821718;30;20603;-85
2023/03/07 07:23:05;;;;;;;23.80;13.77;;;1.00;96.80;;;;;;9807704;30;20266;-82
2023/03/07 07:28:27;;;;;;;28.23;14.67;;;0.50;97.80;;;;;;9822129;30;20200;-82
2023/03/07 07:33:48;;;;;;;31.40;15.03;;;0.20;99.40;;;;;;9829606;30;20543;-83
2023/03/07 07:39:14;;;;;;;29.30;15.67;;;0.00;99.60;;;;;;9828345;30;20293;-83
2023/03/07 07:44:37;;;;;;;35.57;17.40;;;-0.20;99.70;;;;;;9840933;30;20468;-85
2023/03/07 07:50:04;;;;;;;29.00;14.73;;;-0.30;99.90;;;;;;9857945;30;20273;-83
2023/03/07 07:55:28;;;;;;;34.90;15.00;;;-0.30;99.90;;;;;;9893087;30;20276;-83
2023/03/07 08:01:21;;;;;;;32.07;15.47;;;-0.30;99.90;;;;;;9818515;30;20202;-84
2023/03/07 08:06:45;;;;;;;35.77;17.90;;;-0.10;99.90;;;;;;9807689;30;20238;-80
2023/03/07 08:12:11;;;;;;;40.80;18.10;;;0.20;99.90;;;;;;9820977;30;20429;-81
2023/03/07 08:17:44;;;;;;;32.43;16.03;;;0.40;99.90;;;;;;9850580;30;20207;-82
2023/03/07 08:23:07;;;;;;;26.50;15.40;;;0.30;99.90;;;;;;9849789;30;20243;-82
2023/03/07 08:28:28;;;;;;;44.23;21.90;;;0.40;99.90;;;;;;9838801;30;20272;-80
2023/03/07 08:33:50;;;;;;;29.23;17.90;;;0.30;99.90;;;;;;9840296;30;20583;-80
2023/03/07 08:39:11;;;;;;;32.43;17.57;;;0.20;99.90;;;;;;9838649;30;20590;-81
2023/03/07 08:44:32;;;;;;;37.43;19.80;;;0.30;99.90;;;;;;9845966;30;20400;-83
2023/03/07 08:49:54;;;;;;;36.70;19.83;;;0.20;99.90;;;;;;9848698;30;20216;-80
2023/03/07 08:55:15;;;;;;;46.83;23.43;;;0.10;99.90;;;;;;9825826;30;20512;-81
2023/03/07 09:00:37;;;;;;;50.20;22.87;;;0.00;99.90;;;;;;9838116;30;20221;-82
2023/03/07 09:05:59;;;;;;;46.17;24.27;;;0.00;99.90;;;;;;9839422;30;20242;-82
2023/03/07 09:11:21;;;;;;;44.87;23.47;;;-0.20;99.90;;;;;;9821351;30;20309;-82
2023/03/07 09:16:42;;;;;;;44.60;23.50;;;0.00;99.90;;;;;;9823644;30;20225;-82
2023/03/07 09:22:03;;;;;;;54.70;29.00;;;-0.10;99.90;;;;;;9833773;30;20214;-82
2023/03/07 09:27:25;;;;;;;46.60;24.67;;;-0.20;99.90;;;;;;9837159;30;20240;-82
2023/03/07 09:32:47;;;;;;;49.87;25.47;;;0.00;99.90;;;;;;9842765;30;20257;-82
2023/03/07 09:38:09;;;;;;;52.60;24.67;;;0.00;99.90;;;;;;9868357;30;20193;-83
2023/03/07 09:43:46;;;;;;;60.13;29.83;;;0.10;99.90;;;;;;9863242;30;20230;-82
2023/03/07 09:50:00;;;;;;;53.03;28.30;;;0.00;99.90;;;;;;9825333;30;20193;-82
2023/03/07 09:55:36;;;;;;;50.87;28.17;;;0.20;99.90;;;;;;9875610;30;20221;-84
2023/03/07 10:01:00;;;;;;;49.60;25.77;;;0.30;99.90;;;;;;9842531;30;20198;-82
2023/03/07 10:06:43;;;;;;;52.67;27.90;;;0.20;99.90;;;;;;9861785;30;20247;-80
2023/03/07 10:12:23;;;;;;;54.10;29.50;;;0.30;99.90;;;;;;9860275;30;20209;-82
2023/03/07 10:18:06;;;;;;;48.27;26.93;;;0.50;99.90;;;;;;9836137;30;20239;-82
2023/03/07 10:24:00;;;;;;;48.63;26.10;;;0.40;99.90;;;;;;9852781;30;20237;-82
2023/03/07 10:29:23;;;;;;;49.97;26.83;;;0.70;99.90;;;;;;9871365;30;20199;-84
2023/03/07 10:35:12;;;;;;;49.33;26.83;;;0.70;99.90;;;;;;9855523;30;20239;-84
2023/03/07 10:41:06;;;;;;;46.13;27.00;;;0.70;99.90;;;;;;9844244;30;20579;-81
2023/03/07 10:46:29;;;;;;;54.47;29.50;;;0.80;99.90;;;;;;9836238;30;20425;-83
2023/03/07 10:52:00;;;;;;;55.27;29.47;;;0.80;99.90;;;;;;9847399;30;20188;-81
2023/03/07 10:57:27;;;;;;;49.93;28.63;;;0.80;99.90;;;;;;9854648;30;20250;-82
2023/03/07 11:02:50;;;;;;;53.53;28.57;;;0.80;99.90;;;;;;9853624;30;20209;-77
2023/03/07 11:08:33;;;;;;;49.27;27.40;;;0.80;99.90;;;;;;9845304;30;20250;-82
2023/03/07 11:14:05;;;;;;;47.23;27.47;;;0.90;99.90;;;;;;9852407;30;20219;-81
2023/03/07 11:19:38;;;;;;;46.33;26.03;;;0.90;99.90;;;;;;9826210;30;20277;-82
2023/03/07 11:25:12;;;;;;;43.53;25.30;;;1.00;99.90;;;;;;9851922;30;20242;-80
2023/03/07 11:30:33;;;;;;;55.70;31.43;;;1.10;99.90;;;;;;9827125;30;20214;-81
2023/03/07 11:36:06;;;;;;;48.50;27.63;;;1.10;99.90;;;;;;9826676;30;20259;-82
2023/03/07 11:41:34;;;;;;;44.93;24.40;;;1.20;99.90;;;;;;9831078;30;20252;-84
2023/03/07 11:47:20;;;;;;;41.17;24.90;;;1.30;99.90;;;;;;9792299;30;20304;-82
2023/03/07 11:53:14;;;;;;;39.83;22.67;;;1.50;99.90;;;;;;9837798;30;20219;-82
2023/03/07 11:58:42;;;;;;;37.70;22.73;;;1.50;99.90;;;;;;9810834;30;20215;-80
2023/03/07 12:04:21;;;;;;;43.17;26.73;;;1.50;99.90;;;;;;9863653;30;20257;-81
2023/03/07 12:10:03;;;;;;;41.97;23.33;;;1.60;99.90;;;;;;9831231;30;20219;-82
2023/03/07 12:15:24;;;;;;;34.83;21.40;;;1.70;99.90;;;;;;9815574;30;20314;-82
2023/03/07 12:21:16;;;;;;;34.87;21.70;;;1.80;99.90;;;;;;9861667;30;20219;-81
2023/03/07 12:26:51;;;;;;;67.07;39.23;;;1.80;99.90;;;;;;9860473;30;20240;-79
2023/03/07 12:32:22;;;;;;;32.97;19.73;;;2.00;99.90;;;;;;9822890;30;20245;-83
2023/03/07 12:37:54;;;;;;;33.17;20.47;;;2.00;99.90;;;;;;9850913;30;20203;-81
2023/03/07 12:43:47;;;;;;;32.93;19.13;;;2.10;99.90;;;;;;9837096;30;20211;-81
2023/03/07 12:49:20;;;;;;;29.87;18.37;;;2.10;99.90;;;;;;9820387;30;20233;-81
2023/03/07 12:54:51;;;;;;;24.47;15.33;;;2.10;99.90;;;;;;9824162;30;20271;-80
2023/03/07 13:00:18;;;;;;;22.53;14.70;;;2.20;99.90;;;;;;9833830;30;20487;-82
2023/03/07 13:05:42;;;;;;;25.03;15.93;;;2.20;99.90;;;;;;9819911;30;20259;-79
2023/03/07 13:11:04;;;;;;;56.50;27.73;;;2.20;99.90;;;;;;9856909;30;20229;-79
2023/03/07 13:16:34;;;;;;;37.43;20.40;;;2.40;99.90;;;;;;9844683;30;20510;-87
2023/03/07 13:21:58;;;;;;;33.80;17.93;;;2.50;99.90;;;;;;9830317;30;20613;-83
2023/03/07 13:27:41;;;;;;;26.57;16.70;;;2.50;99.90;;;;;;9822597;30;20604;-79
2023/03/07 13:33:22;;;;;;;28.77;15.70;;;2.50;99.90;;;;;;9806474;30;20500;-79
2023/03/07 13:38:46;;;;;;;29.53;16.60;;;2.60;99.90;;;;;;9813246;30;20218;-79
2023/03/07 13:44:36;;;;;;;31.37;17.47;;;2.60;99.90;;;;;;9856207;30;20408;-80
2023/03/07 13:49:58;;;;;;;29.63;15.77;;;2.60;99.90;;;;;;9843316;30;20209;-80
2023/03/07 13:55:22;;;;;;;24.50;14.27;;;2.60;99.90;;;;;;9840495;30;20232;-80
2023/03/07 14:01:01;;;;;;;35.23;19.23;;;2.50;99.90;;;;;;9830859;30;20294;-80
2023/03/07 14:06:35;;;;;;;23.17;13.53;;;2.50;99.90;;;;;;9841572;30;20243;-80
2023/03/07 14:12:24;;;;;;;33.53;17.53;;;2.60;99.90;;;;;;9852892;30;20267;-80
2023/03/07 14:18:09;;;;;;;25.07;15.53;;;2.70;99.90;;;;;;9852969;30;20307;-80
2023/03/07 14:23:50;;;;;;;33.17;17.67;;;2.70;99.90;;;;;;9859026;30;20223;-80
2023/03/07 14:29:18;;;;;;;33.57;18.37;;;2.70;99.90;;;;;;9851540;30;20212;-80
2023/03/07 14:34:47;;;;;;;29.83;17.63;;;2.70;99.90;;;;;;9840527;30;20255;-80
2023/03/07 14:40:27;;;;;;;38.27;21.17;;;2.70;99.90;;;;;;9817333;30;20228;-80
2023/03/07 14:46:03;;;;;;;32.97;18.40;;;2.80;99.90;;;;;;9812223;30;20239;-80
2023/03/07 14:51:27;;;;;;;31.03;18.57;;;2.90;99.90;;;;;;9837050;30;20212;-80
2023/03/07 14:56:51;;;;;;;31.03;17.53;;;2.90;99.90;;;;;;9837797;30;20221;-79
2023/03/07 15:02:17;;;;;;;32.30;16.70;;;2.90;99.90;;;;;;9827482;30;20216;-80
2023/03/07 15:07:39;;;;;;;41.10;25.93;;;2.90;99.90;;;;;;9831681;30;20510;-79
2023/03/07 15:13:05;;;;;;;33.33;16.60;;;2.90;99.90;;;;;;9836711;30;20220;-80
2023/03/07 15:18:35;;;;;;;26.97;14.73;;;2.80;99.90;;;;;;9829499;30;20287;-83
2023/03/07 15:24:04;;;;;;;27.43;14.43;;;2.90;99.90;;;;;;9827514;30;20233;-81
2023/03/07 15:29:29;;;;;;;27.90;15.60;;;2.80;99.90;;;;;;9821830;30;20475;-82
2023/03/07 15:34:58;;;;;;;27.47;17.57;;;2.70;99.90;;;;;;9852245;30;20265;-83
2023/03/07 15:40:22;;;;;;;19.23;13.00;;;2.70;99.90;;;;;;9882474;30;20208;-80
2023/03/07 15:45:58;;;;;;;35.20;19.53;;;2.70;99.90;;;;;;9850000;30;20443;-82
2023/03/07 15:51:26;;;;;;;23.47;13.97;;;2.70;99.90;;;;;;9846271;30;20241;-83
2023/03/07 15:56:58;;;;;;;25.87;15.57;;;2.70;99.90;;;;;;9825100;30;20240;-81
2023/03/07 16:02:31;;;;;;;34.00;20.73;;;2.50;99.90;;;;;;9845110;30;20281;-81
2023/03/07 16:07:55;;;;;;;34.73;20.63;;;2.50;99.90;;;;;;9845825;30;20236;-82
2023/03/07 16:13:21;;;;;;;34.40;24.00;;;2.50;99.90;;;;;;9837642;30;20221;-82
2023/03/07 16:18:42;;;;;;;20.27;13.50;;;2.50;99.90;;;;;;9851060;30;20266;-82
2023/03/07 16:24:04;;;;;;;30.10;16.73;;;2.40;99.90;;;;;;9842882;30;20231;-82
2023/03/07 16:29:26;;;;;;;23.67;12.90;;;2.40;99.90;;;;;;9867595;30;20211;-82
2023/03/07 16:34:50;;;;;;;40.23;25.00;;;2.30;99.90;;;;;;9871230;30;20490;-82
2023/03/07 16:40:13;;;;;;;19.70;13.00;;;2.30;99.90;;;;;;9879646;30;20211;-83
2023/03/07 16:45:35;;;;;;;12.10;4.10;;;2.20;99.90;;;;;;9882329;30;20557;-81
2023/03/07 16:51:16;;;;;;;2.07;1.70;;;1.60;99.90;;;;;;9843292;30;20206;-81
2023/03/07 16:56:43;;;;;;;3.53;1.43;;;1.00;99.90;;;;;;9818425;30;20339;-79
2023/03/07 17:02:15;;;;;;;2.93;1.50;;;0.70;99.90;;;;;;9841868;30;20207;-80
2023/03/07 17:07:36;;;;;;;6.27;3.03;;;0.70;99.90;;;;;;9841512;30;20243;-79
2023/03/07 17:13:00;;;;;;;14.63;4.87;;;0.80;99.90;;;;;;9827738;30;20213;-80
2023/03/07 17:18:21;;;;;;;11.97;5.83;;;1.00;99.90;;;;;;9841629;30;20208;-80
2023/03/07 17:23:43;;;;;;;8.47;4.60;;;1.00;99.90;;;;;;9829782;30;20232;-79
2023/03/07 17:29:10;;;;;;;14.30;8.73;;;1.10;99.90;;;;;;9836528;30;20275;-82
2023/03/07 17:34:33;;;;;;;12.13;8.37;;;1.20;99.90;;;;;;9854049;30;20313;-81
2023/03/07 17:39:54;;;;;;;18.50;9.53;;;1.20;99.90;;;;;;9829223;30;20266;-82
2023/03/07 17:45:16;;;;;;;9.93;6.07;;;1.20;99.90;;;;;;9880191;30;20234;-81
2023/03/07 17:50:38;;;;;;;10.40;5.43;;;1.30;99.90;;;;;;9858783;30;20408;-82
2023/03/07 17:56:08;;;;;;;7.37;4.13;;;1.30;99.90;;;;;;9847955;30;20217;-81
2023/03/07 18:01:30;;;;;;;12.27;6.33;;;1.30;99.90;;;;;;9833537;30;20215;-81
2023/03/07 18:06:51;;;;;;;13.90;5.43;;;1.20;99.90;;;;;;9825523;30;20249;-81
2023/03/07 18:12:13;;;;;;;18.73;7.83;;;1.20;99.90;;;;;;9836805;30;20212;-82
2023/03/07 18:17:36;;;;;;;27.77;11.37;;;1.20;99.90;;;;;;9841838;30;20212;-81
2023/03/07 18:23:07;;;;;;;33.53;10.73;;;1.30;99.90;;;;;;9843439;30;20316;-81
2023/03/07 18:28:29;;;;;;;20.57;8.70;;;1.20;99.90;;;;;;9816640;30;20239;-81
2023/03/07 18:33:53;;;;;;;18.30;7.63;;;1.10;99.90;;;;;;9824760;30;20242;-81
2023/03/07 18:39:14;;;;;;;9.80;5.17;;;1.10;99.90;;;;;;9837127;30;20207;-82
2023/03/07 18:44:39;;;;;;;10.60;5.37;;;1.00;99.90;;;;;;9859943;30;20231;-82
2023/03/07 18:50:00;;;;;;;23.40;10.07;;;0.90;99.90;;;;;;9835721;30;20208;-81
2023/03/07 18:55:22;;;;;;;17.50;7.83;;;0.90;99.90;;;;;;9840145;30;20233;-80
2023/03/07 19:00:43;;;;;;;30.27;11.47;;;0.90;99.90;;;;;;9856032;30;20506;-81
2023/03/07 19:06:05;;;;;;;61.37;19.33;;;1.00;99.90;;;;;;9833883;30;20258;-81
2023/03/07 19:11:26;;;;;;;20.77;9.03;;;1.00;99.90;;;;;;9833145;30;20203;-81
2023/03/07 19:16:47;;;;;;;12.03;5.07;;;1.10;99.90;;;;;;9832412;30;20516;-80
2023/03/07 19:22:09;;;;;;;16.47;5.10;;;1.00;99.90;;;;;;9832335;30;20215;-81
2023/03/07 19:27:30;;;;;;;10.20;4.37;;;1.00;99.90;;;;;;9858504;30;20256;-81
2023/03/07 19:32:52;;;;;;;30.80;9.90;;;1.00;99.90;;;;;;9816505;30;20319;-80
2023/03/07 19:38:13;;;;;;;9.23;4.23;;;0.90;99.90;;;;;;9795634;30;20533;-81
2023/03/07 19:43:34;;;;;;;6.90;3.13;;;0.80;99.90;;;;;;9808376;30;20261;-81
2023/03/07 19:48:56;;;;;;;10.50;3.80;;;0.70;99.90;;;;;;9831155;30;20239;-81
2023/03/07 19:54:19;;;;;;;9.13;4.23;;;0.70;99.90;;;;;;9843915;30;20206;-81
2023/03/07 19:59:40;;;;;;;21.37;7.83;;;0.60;99.90;;;;;;9821702;30;20269;-82
2023/03/07 20:05:04;;;;;;;26.83;8.73;;;0.60;99.90;;;;;;9830061;30;20471;-80
2023/03/07 20:10:25;;;;;;;15.73;5.57;;;0.60;99.90;;;;;;9840678;30;20555;-81
2023/03/07 20:15:53;;;;;;;26.70;8.40;;;0.60;99.90;;;;;;9856239;30;20221;-81
2023/03/07 20:21:15;;;;;;;24.83;8.97;;;0.50;99.90;;;;;;9855557;30;20368;-81
2023/03/07 20:26:38;;;;;;;20.70;7.50;;;0.50;99.90;;;;;;9804781;30;20466;-81
2023/03/07 20:32:00;;;;;;;20.57;7.00;;;0.50;99.90;;;;;;9793848;30;20326;-81
2023/03/07 20:37:21;;;;;;;18.77;5.83;;;0.50;99.90;;;;;;9818742;30;20308;-80
2023/03/07 20:42:42;;;;;;;11.40;4.87;;;0.50;99.90;;;;;;9827940;30;20408;-81
2023/03/07 20:48:04;;;;;;;16.67;5.83;;;0.50;99.90;;;;;;9843131;30;20231;-80
2023/03/07 20:53:25;;;;;;;15.73;5.60;;;0.40;99.90;;;;;;9876777;30;20202;-81
2023/03/07 20:58:51;;;;;;;14.37;6.03;;;0.40;99.90;;;;;;9850368;30;20531;-80
2023/03/07 21:04:16;;;;;;;13.30;5.57;;;0.30;99.90;;;;;;9833279;30;20207;-80
2023/03/07 21:09:37;;;;;;;11.93;4.47;;;0.30;99.90;;;;;;9858553;30;20210;-80
2023/03/07 21:14:59;;;;;;;12.07;3.87;;;0.20;99.90;;;;;;9829700;30;20298;-80
2023/03/07 21:20:20;;;;;;;11.37;3.13;;;0.20;99.90;;;;;;9861083;30;20207;-80
2023/03/07 21:25:43;;;;;;;8.43;2.80;;;0.20;99.90;;;;;;9834060;30;20241;-80
2023/03/07 21:31:16;;;;;;;7.27;2.80;;;0.20;99.90;;;;;;9848202;30;20214;-80
2023/03/07 21:36:38;;;;;;;9.73;3.63;;;0.20;99.90;;;;;;9848687;30;20203;-80
2023/03/07 21:41:58;;;;;;;9.27;3.43;;;0.20;99.90;;;;;;9859866;30;20210;-80
2023/03/07 21:47:20;;;;;;;17.83;4.87;;;0.20;99.90;;;;;;9847830;30;20234;-80
2023/03/07 21:52:41;;;;;;;11.67;2.47;;;0.10;99.90;;;;;;9835687;30;20273;-81
2023/03/07 21:58:03;;;;;;;10.47;2.63;;;0.10;99.90;;;;;;9859660;30;20706;-82
2023/03/07 22:03:26;;;;;;;5.57;2.27;;;0.10;99.90;;;;;;9835133;30;20207;-80
2023/03/07 22:08:47;;;;;;;10.80;2.60;;;0.00;99.90;;;;;;9834246;30;20231;-80
2023/03/07 22:14:08;;;;;;;13.30;2.93;;;0.00;99.90;;;;;;9846901;30;20503;-82
2023/03/07 22:19:30;;;;;;;10.67;2.33;;;-0.10;99.90;;;;;;9846793;30;20254;-82
2023/03/07 22:24:52;;;;;;;9.30;2.37;;;-0.20;99.90;;;;;;9846321;30;20218;-79
2023/03/07 22:30:13;;;;;;;11.07;3.13;;;-0.10;99.90;;;;;;9833285;30;20211;-82
2023/03/07 22:35:34;;;;;;;7.30;2.67;;;0.00;99.90;;;;;;9834258;30;20418;-80
2023/03/07 22:41:06;;;;;;;6.17;2.13;;;-0.20;99.90;;;;;;9833446;30;20214;-79
2023/03/07 22:46:28;;;;;;;5.80;1.93;;;-0.20;99.90;;;;;;9858361;30;20300;-79
2023/03/07 22:51:49;;;;;;;6.53;2.43;;;-0.20;99.90;;;;;;9835707;30;20287;-81
2023/03/07 22:57:10;;;;;;;10.47;2.30;;;-0.30;99.90;;;;;;9857403;30;20217;-79
2023/03/07 23:02:31;;;;;;;6.83;2.40;;;-0.30;99.90;;;;;;9832504;30;20215;-80
2023/03/07 23:07:53;;;;;;;12.93;2.60;;;-0.30;99.90;;;;;;9820643;30;20265;-81
2023/03/07 23:13:14;;;;;;;5.30;2.20;;;-0.40;99.90;;;;;;9816615;30;20202;-79
2023/03/07 23:18:39;;;;;;;9.60;2.40;;;-0.40;99.90;;;;;;9818841;30;20274;-81
2023/03/07 23:24:01;;;;;;;8.43;2.00;;;-0.40;99.90;;;;;;9831535;30;20297;-80
2023/03/07 23:29:23;;;;;;;8.27;2.27;;;-0.40;99.90;;;;;;9857315;30;20555;-79
2023/03/07 23:34:45;;;;;;;4.43;2.07;;;-0.40;99.90;;;;;;9807647;30;20246;-80
2023/03/07 23:40:09;;;;;;;8.90;1.73;;;-0.50;99.90;;;;;;9798008;30;20203;-80
2023/03/07 23:45:32;;;;;;;8.60;2.40;;;-0.50;99.90;;;;;;9833304;30;20245;-79
2023/03/07 23:50:54;;;;;;;5.70;2.07;;;-0.50;99.90;;;;;;9864040;30;20256;-79
2023/03/07 23:56:16;;;;;;;5.23;2.03;;;-0.60;99.90;;;;;;9870706;30;20401;-80
